MST,Max TemperatureF,Mean TemperatureF,Min TemperatureF,Max Dew PointF,MeanDew PointF,Min DewpointF,Max Humidity, Mean Humidity, Min Humidity, Max Sea Level PressureIn, Mean Sea Level PressureIn, Min Sea Level PressureIn, Max VisibilityMiles, Mean VisibilityMiles, Min VisibilityMiles, Max Wind SpeedMPH, Mean Wind SpeedMPH, Max Gust SpeedMPH,PrecipitationIn, CloudCover, Events, WindDirDegrees
2011-11-1,50,40,29,33,29,25,92,66,39,30.27,30.12,29.87,10,6,0,28,11,35,0.20,6,Fog-Snow,16
2011-11-2,39,28,16,29,24,14,88,68,48,30.53,30.41,30.26,10,8,2,21,8,31,0.01,4,Snow,345
2011-11-3,49,31,13,25,18,9,92,60,28,30.47,30.23,29.95,10,10,10,20,8,24,0.00,0,,120
2011-11-4,55,39,22,32,27,20,88,65,41,29.95,29.83,29.63,10,10,9,18,10,22,0.00,0,,113
2011-11-5,58,44,30,38,31,25,92,66,40,29.62,29.44,29.26,10,10,10,24,10,29,0.02,2,Rain,143
2011-11-6,50,36,22,26,17,14,85,55,24,30.10,29.89,29.66,10,10,10,26,11,35,0.00,0,,283
2011-11-7,43,32,21,34,28,17,96,84,72,30.22,30.13,30.05,10,7,1,22,4,26,0.03,6,Snow,141
2011-11-8,46,34,21,33,24,18,100,71,41,30.43,30.20,30.08,10,5,0,13,6,24,0.00,3,Fog,299
2011-11-9,48,33,18,21,16,13,84,55,26,30.54,30.46,30.42,10,10,10,24,8,30,0.00,0,,317
2011-11-10,61,38,14,25,13,8,88,51,13,30.40,30.16,29.91,10,10,10,23,8,32,0.00,0,,301
2011-11-11,64,44,24,18,11,4,62,36,9,29.99,29.80,29.61,10,10,10,25,9,28,0.00,0,,285
2011-11-12,64,44,23,29,20,11,69,46,22,29.57,29.47,29.38,10,10,9,44,13,61,T,2,,280
2011-11-13,53,45,36,27,20,11,49,39,28,29.58,29.49,29.43,10,10,10,38,18,52,0.00,1,,281
2011-11-14,56,39,21,21,15,10,74,45,16,29.70,29.60,29.51,10,10,10,39,17,54,0.00,0,,287
2011-11-15,40,30,19,20,14,9,74,54,34,30.18,29.93,29.64,10,10,10,23,9,28,0.00,1,,342
2011-11-16,33,24,14,23,17,10,92,69,45,30.42,30.29,30.16,10,6,1,23,7,26,0.04,5,Snow,307
2011-11-17,61,38,14,22,16,7,74,47,19,30.26,29.93,29.66,10,10,10,36,10,47,0.00,0,,22
2011-11-18,58,44,29,23,20,17,63,44,24,29.64,29.56,29.50,10,10,10,24,10,30,0.00,1,,76
2011-11-19,36,29,22,25,21,19,92,78,63,30.17,29.87,29.56,10,9,1,24,9,30,0.03,6,Snow,88
2011-11-20,47,36,24,22,20,17,88,60,31,30.19,30.11,30.01,10,10,9,15,9,20,0.00,6,,126
2011-11-21,44,31,17,28,22,15,85,67,49,30.14,30.07,29.98,10,10,8,14,2,20,0.00,2,,91
2011-11-22,57,42,26,29,23,19,85,56,26,30.18,30.09,30.01,10,10,10,35,13,44,0.00,0,,292
2011-11-23,71,50,28,27,20,13,70,41,11,30.17,30.06,29.92,10,10,10,22,6,28,0.00,0,,301
2011-11-24,70,46,21,25,19,16,74,44,14,29.97,29.86,29.76,10,10,10,17,4,24,0.00,0,,340
2011-11-25,61,45,28,32,24,19,85,54,22,30.14,29.86,29.67,10,8,1,38,14,46,0.04,3,Snow,303
2011-11-26,39,28,17,18,12,8,67,47,27,30.59,30.48,30.18,10,10,10,35,17,43,0.00,0,,318
2011-11-27,58,36,14,18,13,8,80,49,17,30.52,30.32,30.10,10,10,10,13,6,15,0.00,0,,301
2011-11-28,64,44,24,26,20,17,69,43,17,30.38,30.19,30.01,10,10,10,25,10,31,0.00,0,,357
2011-11-29,54,37,20,27,22,17,92,62,32,30.38,30.26,30.04,10,10,10,12,5,14,0.00,0,,90
2011-11-30,56,38,20,30,24,18,91,59,26,30.14,29.93,29.76,10,10,10,20,6,25,0.00,1,,16